PWSweather.com
Personal Weather Stations
Station Observations
SUBOTICARS
SuboticaYU

SuboticaYU

Lat: 46.1296717, Lon: 19.641551

Elevation: 361

Station Type: Nexus

http://sumeteo.info

Latest ConditionsUpdated 8:15:01 AM GMT+01:01 Sunday, Dec 16, 2018
Currently Today's Max Today's Min Today's Average
Temperature 29.7°F-1.3°C 30.4°F-0.9°C 29.3°F-1.5°C 29.6°F-1.3°C
Dew Point 28.1°F-2.2°C 28.9°F-1.7°C 27.8°F-2.3°C 28.3°F-2.1°C
Winds 2.3 mph ENE3.7 kmh ENE 3.5 mph -5.6 kmh - - 2.2 mph 3.5 kmh
Wind Gusts 2.3 mph3.7 kmh 3.5 mph5.6 kmh - -
Humidity 94% 95% 94% 95%
Pressure 29.76 in1007.8 mb 29.76 in1007.8 mb 29.70 in1005.8 mb -
Hour Temp Dew Point Humidity Winds Wind Gusts Pressure Precip Precip Rate Daily Precip Total
08:15 AM 29.7°F-1.3°C 28.1°F-2.2°C 94% 2.3 mph ENE3.7 kmh ENE 2.3 mph3.7 kmh 29.76 in1007.8 mb - 0.00 in0.0 mm 0.00 in0.0 mm
08:10 AM 29.7°F-1.3°C 28.1°F-2.2°C 94% 2.3 mph ENE3.7 kmh ENE 3.5 mph5.6 kmh 29.76 in1007.8 mb - 0.00 in0.0 mm 0.00 in0.0 mm
08:00 AM 29.5°F-1.4°C 28.0°F-2.2°C 94% 1.2 mph ENE1.9 kmh ENE 2.3 mph3.7 kmh 29.76 in1007.8 mb - 0.00 in0.0 mm 0.00 in0.0 mm
07:55 AM 29.5°F-1.4°C 28.0°F-2.2°C 94% 2.3 mph ENE3.7 kmh ENE 3.5 mph5.6 kmh 29.76 in1007.8 mb - 0.00 in0.0 mm 0.00 in0.0 mm
07:50 AM 29.5°F-1.4°C 28.0°F-2.2°C 94% 3.5 mph ENE5.6 kmh ENE 3.5 mph5.6 kmh 29.76 in1007.8 mb - 0.00 in0.0 mm 0.00 in0.0 mm
07:45 AM 29.5°F-1.4°C 28.0°F-2.2°C 94% 2.3 mph ENE3.7 kmh ENE 3.5 mph5.6 kmh 29.76 in1007.8 mb - 0.00 in0.0 mm 0.00 in0.0 mm
07:40 AM 29.5°F-1.4°C 28.2°F-2.1°C 95% 1.2 mph ENE1.9 kmh ENE 2.3 mph3.7 kmh 29.76 in1007.8 mb - 0.00 in0.0 mm 0.00 in0.0 mm
07:35 AM 29.5°F-1.4°C 28.2°F-2.1°C 95% 1.2 mph ENE1.9 kmh ENE 1.2 mph1.9 kmh 29.76 in1007.8 mb - 0.00 in0.0 mm 0.00 in0.0 mm
07:30 AM 29.3°F-1.5°C 28.0°F-2.2°C 95% 1.2 mph ENE1.9 kmh ENE 3.5 mph5.6 kmh 29.75 in1007.5 mb - 0.00 in0.0 mm 0.00 in0.0 mm
07:25 AM 29.4°F-1.4°C 28.1°F-2.2°C 95% 2.3 mph ENE3.7 kmh ENE 3.5 mph5.6 kmh 29.74 in1007.1 mb - 0.00 in0.0 mm 0.00 in0.0 mm
07:20 AM 29.3°F-1.5°C 27.8°F-2.3°C 94% 2.3 mph ENE3.7 kmh ENE 2.3 mph3.7 kmh 29.74 in1007.1 mb - 0.00 in0.0 mm 0.00 in0.0 mm
07:15 AM 29.3°F-1.5°C 27.8°F-2.3°C 94% 2.3 mph ENE3.7 kmh ENE 2.3 mph3.7 kmh 29.74 in1007.1 mb - 0.00 in0.0 mm 0.00 in0.0 mm
07:10 AM 29.3°F-1.5°C 27.8°F-2.3°C 94% 1.2 mph ENE1.9 kmh ENE 3.5 mph5.6 kmh 29.73 in1006.8 mb - 0.00 in0.0 mm 0.00 in0.0 mm
07:00 AM 29.3°F-1.5°C 27.8°F-2.3°C 94% 3.5 mph ENE5.6 kmh ENE 3.5 mph5.6 kmh 29.73 in1006.8 mb - 0.00 in0.0 mm 0.00 in0.0 mm
06:55 AM 29.3°F-1.5°C 28.0°F-2.2°C 95% 1.2 mph ENE1.9 kmh ENE 1.2 mph1.9 kmh 29.73 in1006.8 mb - 0.00 in0.0 mm 0.00 in0.0 mm
06:50 AM 29.3°F-1.5°C 28.0°F-2.2°C 95% 1.2 mph ENE1.9 kmh ENE 3.5 mph5.6 kmh 29.73 in1006.8 mb - 0.00 in0.0 mm 0.00 in0.0 mm
06:45 AM 29.3°F-1.5°C 28.0°F-2.2°C 95% 2.3 mph ENE3.7 kmh ENE 3.5 mph5.6 kmh 29.74 in1007.1 mb - 0.00 in0.0 mm 0.00 in0.0 mm
06:40 AM 29.3°F-1.5°C 28.0°F-2.2°C 95% 2.3 mph ENE3.7 kmh ENE 2.3 mph3.7 kmh 29.74 in1007.1 mb - 0.00 in0.0 mm 0.00 in0.0 mm
06:35 AM 29.3°F-1.5°C 28.0°F-2.2°C 95% 2.3 mph ENE3.7 kmh ENE 3.5 mph5.6 kmh 29.74 in1007.1 mb - 0.00 in0.0 mm 0.00 in0.0 mm
06:30 AM 29.3°F-1.5°C 28.0°F-2.2°C 95% 2.3 mph ENE3.7 kmh ENE 3.5 mph5.6 kmh 29.73 in1006.8 mb - 0.00 in0.0 mm 0.00 in0.0 mm
06:25 AM 29.3°F-1.5°C 28.0°F-2.2°C 95% 2.3 mph ENE3.7 kmh ENE 2.3 mph3.7 kmh 29.73 in1006.8 mb - 0.00 in0.0 mm 0.00 in0.0 mm
06:20 AM 29.3°F-1.5°C 28.0°F-2.2°C 95% 2.3 mph ENE3.7 kmh ENE 3.5 mph5.6 kmh 29.73 in1006.8 mb - 0.00 in0.0 mm 0.00 in0.0 mm
06:15 AM 29.3°F-1.5°C 28.0°F-2.2°C 95% 2.3 mph ENE3.7 kmh ENE 3.5 mph5.6 kmh 29.72 in1006.4 mb - 0.00 in0.0 mm 0.00 in0.0 mm
06:10 AM 29.3°F-1.5°C 28.0°F-2.2°C 95% 1.2 mph ENE1.9 kmh ENE 2.3 mph3.7 kmh 29.72 in1006.4 mb - 0.00 in0.0 mm 0.00 in0.0 mm
06:00 AM 29.3°F-1.5°C 28.0°F-2.2°C 95% 2.3 mph ENE3.7 kmh ENE 3.5 mph5.6 kmh 29.72 in1006.4 mb - 0.00 in0.0 mm 0.00 in0.0 mm
05:55 AM 29.3°F-1.5°C 28.0°F-2.2°C 95% 1.2 mph ENE1.9 kmh ENE 1.2 mph1.9 kmh 29.72 in1006.4 mb - 0.00 in0.0 mm 0.00 in0.0 mm
05:50 AM 29.3°F-1.5°C 28.0°F-2.2°C 95% 2.3 mph ENE3.7 kmh ENE 2.3 mph3.7 kmh 29.72 in1006.4 mb - 0.00 in0.0 mm 0.00 in0.0 mm
05:45 AM 29.3°F-1.5°C 28.0°F-2.2°C 95% 2.3 mph ENE3.7 kmh ENE 2.3 mph3.7 kmh 29.72 in1006.4 mb - 0.00 in0.0 mm 0.00 in0.0 mm
05:40 AM 29.3°F-1.5°C 28.0°F-2.2°C 95% 2.3 mph ENE3.7 kmh ENE 3.5 mph5.6 kmh 29.72 in1006.4 mb - 0.00 in0.0 mm 0.00 in0.0 mm
05:35 AM 29.3°F-1.5°C 28.0°F-2.2°C 95% 2.3 mph ENE3.7 kmh ENE 3.5 mph5.6 kmh 29.72 in1006.4 mb - 0.00 in0.0 mm 0.00 in0.0 mm
05:30 AM 29.3°F-1.5°C 28.0°F-2.2°C 95% 2.3 mph ENE3.7 kmh ENE 2.3 mph3.7 kmh 29.72 in1006.4 mb - 0.00 in0.0 mm 0.00 in0.0 mm
05:25 AM 29.3°F-1.5°C 28.0°F-2.2°C 95% 3.5 mph ENE5.6 kmh ENE 3.5 mph5.6 kmh 29.72 in1006.4 mb - 0.00 in0.0 mm 0.00 in0.0 mm
05:20 AM 29.3°F-1.5°C 28.0°F-2.2°C 95% 2.3 mph ENE3.7 kmh ENE 3.5 mph5.6 kmh 29.72 in1006.4 mb - 0.00 in0.0 mm 0.00 in0.0 mm
05:15 AM 29.3°F-1.5°C 28.0°F-2.2°C 95% 3.5 mph ENE5.6 kmh ENE 3.5 mph5.6 kmh 29.72 in1006.4 mb - 0.00 in0.0 mm 0.00 in0.0 mm
05:10 AM 29.5°F-1.4°C 28.2°F-2.1°C 95% 2.3 mph ENE3.7 kmh ENE 3.5 mph5.6 kmh 29.72 in1006.4 mb - 0.00 in0.0 mm 0.00 in0.0 mm
05:00 AM 29.5°F-1.4°C 28.2°F-2.1°C 95% 2.3 mph ENE3.7 kmh ENE 3.5 mph5.6 kmh 29.72 in1006.4 mb - 0.00 in0.0 mm 0.00 in0.0 mm
04:55 AM 29.5°F-1.4°C 28.2°F-2.1°C 95% 2.3 mph ENE3.7 kmh ENE 3.5 mph5.6 kmh 29.72 in1006.4 mb - 0.00 in0.0 mm 0.00 in0.0 mm
04:50 AM 29.5°F-1.4°C 28.2°F-2.1°C 95% 3.5 mph ENE5.6 kmh ENE 3.5 mph5.6 kmh 29.72 in1006.4 mb - 0.00 in0.0 mm 0.00 in0.0 mm
04:45 AM 29.5°F-1.4°C 28.2°F-2.1°C 95% 2.3 mph ENE3.7 kmh ENE 3.5 mph5.6 kmh 29.71 in1006.1 mb - 0.00 in0.0 mm 0.00 in0.0 mm
04:40 AM 29.5°F-1.4°C 28.2°F-2.1°C 95% 3.5 mph ENE5.6 kmh ENE 3.5 mph5.6 kmh 29.71 in1006.1 mb - 0.00 in0.0 mm 0.00 in0.0 mm
04:35 AM 29.5°F-1.4°C 28.2°F-2.1°C 95% 2.3 mph ENE3.7 kmh ENE 3.5 mph5.6 kmh 29.71 in1006.1 mb - 0.00 in0.0 mm 0.00 in0.0 mm
04:30 AM 29.5°F-1.4°C 28.2°F-2.1°C 95% 2.3 mph ENE3.7 kmh ENE 3.5 mph5.6 kmh 29.71 in1006.1 mb - 0.00 in0.0 mm 0.00 in0.0 mm
04:25 AM 29.5°F-1.4°C 28.2°F-2.1°C 95% 2.3 mph ENE3.7 kmh ENE 3.5 mph5.6 kmh 29.71 in1006.1 mb - 0.00 in0.0 mm 0.00 in0.0 mm
04:20 AM 29.5°F-1.4°C 28.2°F-2.1°C 95% 2.3 mph ENE3.7 kmh ENE 3.5 mph5.6 kmh 29.71 in1006.1 mb - 0.00 in0.0 mm 0.00 in0.0 mm
04:15 AM 29.5°F-1.4°C 28.2°F-2.1°C 95% 3.5 mph ENE5.6 kmh ENE 3.5 mph5.6 kmh 29.70 in1005.8 mb - 0.00 in0.0 mm 0.00 in0.0 mm
04:10 AM 29.5°F-1.4°C 28.2°F-2.1°C 95% 3.5 mph ENE5.6 kmh ENE 3.5 mph5.6 kmh 29.70 in1005.8 mb - 0.00 in0.0 mm 0.00 in0.0 mm
04:00 AM 29.5°F-1.4°C 28.2°F-2.1°C 95% 1.2 mph ENE1.9 kmh ENE 2.3 mph3.7 kmh 29.71 in1006.1 mb - 0.00 in0.0 mm 0.00 in0.0 mm
03:55 AM 29.5°F-1.4°C 28.2°F-2.1°C 95% 2.3 mph ENE3.7 kmh ENE 3.5 mph5.6 kmh 29.72 in1006.4 mb - 0.00 in0.0 mm 0.00 in0.0 mm
03:50 AM 29.5°F-1.4°C 28.2°F-2.1°C 95% 2.3 mph ENE3.7 kmh ENE 2.3 mph3.7 kmh 29.72 in1006.4 mb - 0.00 in0.0 mm 0.00 in0.0 mm
03:45 AM 29.5°F-1.4°C 28.2°F-2.1°C 95% 1.2 mph ENE1.9 kmh ENE 2.3 mph3.7 kmh 29.72 in1006.4 mb - 0.00 in0.0 mm 0.00 in0.0 mm
03:40 AM 29.5°F-1.4°C 28.2°F-2.1°C 95% 2.3 mph ENE3.7 kmh ENE 3.5 mph5.6 kmh 29.72 in1006.4 mb - 0.00 in0.0 mm 0.00 in0.0 mm
03:35 AM 29.5°F-1.4°C 28.2°F-2.1°C 95% 2.3 mph ENE3.7 kmh ENE 3.5 mph5.6 kmh 29.72 in1006.4 mb - 0.00 in0.0 mm 0.00 in0.0 mm
03:30 AM 29.5°F-1.4°C 28.2°F-2.1°C 95% 2.3 mph ENE3.7 kmh ENE 3.5 mph5.6 kmh 29.71 in1006.1 mb - 0.00 in0.0 mm 0.00 in0.0 mm
03:25 AM 29.5°F-1.4°C 28.2°F-2.1°C 95% 2.3 mph ENE3.7 kmh ENE 2.3 mph3.7 kmh 29.71 in1006.1 mb - 0.00 in0.0 mm 0.00 in0.0 mm
03:20 AM 29.7°F-1.3°C 28.4°F-2.0°C 95% 2.3 mph ENE3.7 kmh ENE 3.5 mph5.6 kmh 29.71 in1006.1 mb - 0.00 in0.0 mm 0.00 in0.0 mm
03:15 AM 29.7°F-1.3°C 28.4°F-2.0°C 95% 1.2 mph ENE1.9 kmh ENE 2.3 mph3.7 kmh 29.71 in1006.1 mb - 0.00 in0.0 mm 0.00 in0.0 mm
03:10 AM 29.7°F-1.3°C 28.4°F-2.0°C 95% 2.3 mph ENE3.7 kmh ENE 3.5 mph5.6 kmh 29.71 in1006.1 mb - 0.00 in0.0 mm 0.00 in0.0 mm
03:00 AM 29.7°F-1.3°C 28.4°F-2.0°C 95% 2.3 mph ENE3.7 kmh ENE 2.3 mph3.7 kmh 29.71 in1006.1 mb - 0.00 in0.0 mm 0.00 in0.0 mm
02:55 AM 29.7°F-1.3°C 28.4°F-2.0°C 95% 2.3 mph ENE3.7 kmh ENE 3.5 mph5.6 kmh 29.71 in1006.1 mb - 0.00 in0.0 mm 0.00 in0.0 mm
02:50 AM 29.8°F-1.2°C 28.6°F-1.9°C 95% 2.3 mph ENE3.7 kmh ENE 3.5 mph5.6 kmh 29.71 in1006.1 mb - 0.00 in0.0 mm 0.00 in0.0 mm
02:45 AM 29.8°F-1.2°C 28.6°F-1.9°C 95% 2.3 mph ENE3.7 kmh ENE 2.3 mph3.7 kmh 29.72 in1006.4 mb - 0.00 in0.0 mm 0.00 in0.0 mm
02:40 AM 29.8°F-1.2°C 28.6°F-1.9°C 95% 2.3 mph ENE3.7 kmh ENE 2.3 mph3.7 kmh 29.72 in1006.4 mb - 0.00 in0.0 mm 0.00 in0.0 mm
02:35 AM 29.8°F-1.2°C 28.6°F-1.9°C 95% 2.3 mph ENE3.7 kmh ENE 2.3 mph3.7 kmh 29.72 in1006.4 mb - 0.00 in0.0 mm 0.00 in0.0 mm
02:30 AM 29.8°F-1.2°C 28.6°F-1.9°C 95% 2.3 mph ENE3.7 kmh ENE 2.3 mph3.7 kmh 29.72 in1006.4 mb - 0.00 in0.0 mm 0.00 in0.0 mm
02:25 AM 29.8°F-1.2°C 28.6°F-1.9°C 95% 1.2 mph ENE1.9 kmh ENE 2.3 mph3.7 kmh 29.72 in1006.4 mb - 0.00 in0.0 mm 0.00 in0.0 mm
02:20 AM 29.8°F-1.2°C 28.6°F-1.9°C 95% 2.3 mph ENE3.7 kmh ENE 2.3 mph3.7 kmh 29.72 in1006.4 mb - 0.00 in0.0 mm 0.00 in0.0 mm
02:15 AM 29.8°F-1.2°C 28.6°F-1.9°C 95% 1.2 mph ENE1.9 kmh ENE 1.2 mph1.9 kmh 29.72 in1006.4 mb - 0.00 in0.0 mm 0.00 in0.0 mm
02:10 AM 29.8°F-1.2°C 28.6°F-1.9°C 95% 1.2 mph ENE1.9 kmh ENE 1.2 mph1.9 kmh 29.72 in1006.4 mb - 0.00 in0.0 mm 0.00 in0.0 mm
02:00 AM 30.0°F-1.1°C 28.8°F-1.8°C 95% 2.3 mph ENE3.7 kmh ENE 3.5 mph5.6 kmh 29.71 in1006.1 mb - 0.00 in0.0 mm 0.00 in0.0 mm
01:55 AM 30.0°F-1.1°C 28.8°F-1.8°C 95% 2.3 mph ENE3.7 kmh ENE 2.3 mph3.7 kmh 29.71 in1006.1 mb - 0.00 in0.0 mm 0.00 in0.0 mm
01:50 AM 30.0°F-1.1°C 28.8°F-1.8°C 95% 2.3 mph ENE3.7 kmh ENE 1.2 mph1.9 kmh 29.71 in1006.1 mb - 0.00 in0.0 mm 0.00 in0.0 mm
01:45 AM 30.0°F-1.1°C 28.8°F-1.8°C 95% 1.2 mph ENE1.9 kmh ENE 2.3 mph3.7 kmh 29.70 in1005.8 mb - 0.00 in0.0 mm 0.00 in0.0 mm
01:40 AM 30.0°F-1.1°C 28.8°F-1.8°C 95% 1.2 mph ENE1.9 kmh ENE 2.3 mph3.7 kmh 29.70 in1005.8 mb - 0.00 in0.0 mm 0.00 in0.0 mm
01:35 AM 30.0°F-1.1°C 28.8°F-1.8°C 95% 2.3 mph ENE3.7 kmh ENE 3.5 mph5.6 kmh 29.70 in1005.8 mb - 0.00 in0.0 mm 0.00 in0.0 mm
01:30 AM 30.0°F-1.1°C 28.8°F-1.8°C 95% 2.3 mph ENE3.7 kmh ENE 2.3 mph3.7 kmh 29.70 in1005.8 mb - 0.00 in0.0 mm 0.00 in0.0 mm
01:25 AM 30.0°F-1.1°C 28.8°F-1.8°C 95% 2.3 mph ENE3.7 kmh ENE 2.3 mph3.7 kmh 29.70 in1005.8 mb - 0.00 in0.0 mm 0.00 in0.0 mm
01:20 AM 30.0°F-1.1°C 28.8°F-1.8°C 95% 2.3 mph ENE3.7 kmh ENE 3.5 mph5.6 kmh 29.70 in1005.8 mb - 0.00 in0.0 mm 0.00 in0.0 mm
01:15 AM 30.0°F-1.1°C 28.8°F-1.8°C 95% 2.3 mph ENE3.7 kmh ENE 2.3 mph3.7 kmh 29.70 in1005.8 mb - 0.00 in0.0 mm 0.00 in0.0 mm
01:10 AM 30.0°F-1.1°C 28.8°F-1.8°C 95% 2.3 mph ENE3.7 kmh ENE 3.5 mph5.6 kmh 29.70 in1005.8 mb - 0.00 in0.0 mm 0.00 in0.0 mm
01:00 AM 30.0°F-1.1°C 28.8°F-1.8°C 95% 1.2 mph ENE1.9 kmh ENE 2.3 mph3.7 kmh 29.70 in1005.8 mb - 0.00 in0.0 mm 0.00 in0.0 mm
12:55 AM 30.0°F-1.1°C 28.8°F-1.8°C 95% 2.3 mph ENE3.7 kmh ENE 2.3 mph3.7 kmh 29.70 in1005.8 mb - 0.00 in0.0 mm 0.00 in0.0 mm
12:50 AM 30.0°F-1.1°C 28.8°F-1.8°C 95% 1.2 mph ENE1.9 kmh ENE 2.3 mph3.7 kmh 29.70 in1005.8 mb - 0.00 in0.0 mm 0.00 in0.0 mm
12:45 AM 30.2°F-1.0°C 28.9°F-1.7°C 95% 2.3 mph ENE3.7 kmh ENE 3.5 mph5.6 kmh 29.70 in1005.8 mb - 0.00 in0.0 mm 0.00 in0.0 mm
12:40 AM 30.2°F-1.0°C 28.9°F-1.7°C 95% 2.3 mph ENE3.7 kmh ENE 3.5 mph5.6 kmh 29.70 in1005.8 mb - 0.00 in0.0 mm 0.00 in0.0 mm
12:35 AM 30.2°F-1.0°C 28.9°F-1.7°C 95% 2.3 mph ENE3.7 kmh ENE 3.5 mph5.6 kmh 29.70 in1005.8 mb - 0.00 in0.0 mm 0.00 in0.0 mm
12:30 AM 30.2°F-1.0°C 28.9°F-1.7°C 95% 1.2 mph ENE1.9 kmh ENE 2.3 mph3.7 kmh 29.70 in1005.8 mb - 0.00 in0.0 mm 0.00 in0.0 mm
12:25 AM 30.2°F-1.0°C 28.7°F-1.8°C 94% 2.3 mph ENE3.7 kmh ENE 3.5 mph5.6 kmh 29.70 in1005.8 mb - 0.00 in0.0 mm 0.00 in0.0 mm
12:20 AM 30.2°F-1.0°C 28.7°F-1.8°C 94% 2.3 mph ENE3.7 kmh ENE 3.5 mph5.6 kmh 29.70 in1005.8 mb - 0.00 in0.0 mm 0.00 in0.0 mm
12:15 AM 30.2°F-1.0°C 28.7°F-1.8°C 94% 2.3 mph ENE3.7 kmh ENE 3.5 mph5.6 kmh 29.70 in1005.8 mb - 0.00 in0.0 mm 0.00 in0.0 mm
12:10 AM 30.2°F-1.0°C 28.7°F-1.8°C 94% 2.3 mph ENE3.7 kmh ENE 2.3 mph3.7 kmh 29.70 in1005.8 mb - 0.00 in0.0 mm 0.00 in0.0 mm
12:00 AM 30.4°F-0.9°C 28.9°F-1.7°C 94% 1.2 mph ENE1.9 kmh ENE 2.3 mph3.7 kmh 29.70 in1005.8 mb - 0.00 in0.0 mm 0.00 in0.0 mm